createdAt,value
2018-03-30T00:02:20.109Z,14.13
2018-03-30T00:04:47.788Z,15.30
2018-03-30T00:07:15.363Z,16.30
2018-03-30T00:09:54.814Z,15.20
2018-03-30T00:12:22.655Z,16.33
2018-03-30T00:14:50.217Z,15.43
2018-03-30T00:17:17.772Z,15.70
2018-03-30T00:19:45.359Z,14.90
2018-03-30T00:22:12.909Z,15.53
2018-03-30T00:24:40.500Z,15.40
2018-03-30T00:27:08.078Z,15.33
2018-03-30T00:29:35.629Z,15.60
2018-03-30T00:32:03.805Z,16.77
2018-03-30T00:34:31.752Z,16.60
2018-03-30T00:36:59.326Z,16.27
2018-03-30T00:39:27.232Z,16.90
2018-03-30T00:41:54.837Z,17.90
2018-03-30T00:44:23.497Z,17.90
2018-03-30T00:46:51.059Z,18.03
2018-03-30T00:49:18.691Z,18.03
2018-03-30T00:51:46.251Z,17.97
2018-03-30T00:54:13.811Z,17.77
2018-03-30T00:56:41.396Z,20.50
2018-03-30T00:59:08.951Z,18.83
2018-03-30T01:01:36.539Z,19.53
2018-03-30T01:04:04.389Z,18.10
2018-03-30T01:06:32.018Z,18.83
2018-03-30T01:08:59.575Z,18.50
2018-03-30T01:11:27.118Z,20.33
2018-03-30T01:13:54.935Z,20.30
2018-03-30T01:16:23.429Z,19.37
2018-03-30T01:18:50.989Z,21.97
2018-03-30T01:21:18.555Z,21.57
2018-03-30T01:23:46.416Z,21.60
2018-03-30T01:26:14.031Z,22.60
2018-03-30T01:28:41.539Z,24.00
2018-03-30T01:31:09.080Z,23.50
2018-03-30T01:33:36.621Z,22.57
2018-03-30T01:36:04.135Z,23.20
2018-03-30T01:38:31.686Z,24.40
2018-03-30T01:40:59.196Z,22.47
2018-03-30T01:43:26.994Z,23.90
2018-03-30T01:45:54.854Z,24.57
2018-03-30T01:48:22.381Z,24.70
2018-03-30T01:50:49.915Z,23.90
2018-03-30T01:53:17.457Z,23.87
2018-03-30T01:55:44.967Z,23.60
2018-03-30T01:58:12.576Z,24.70
2018-03-30T02:00:40.066Z,25.80
2018-03-30T02:03:07.595Z,24.07
2018-03-30T02:05:35.353Z,24.73
2018-03-30T02:08:02.851Z,23.97
2018-03-30T02:10:30.428Z,26.40
2018-03-30T02:12:58.236Z,25.03
2018-03-30T02:15:25.793Z,26.90
2018-03-30T02:17:53.398Z,25.37
2018-03-30T02:20:20.906Z,24.97
2018-03-30T02:22:48.465Z,24.73
2018-03-30T02:25:15.988Z,26.87
2018-03-30T02:27:43.536Z,26.00
2018-03-30T02:30:11.052Z,26.43
2018-03-30T02:32:38.548Z,25.20
2018-03-30T02:35:06.380Z,27.50
2018-03-30T02:37:33.904Z,25.77
2018-03-30T02:40:01.465Z,25.90
2018-03-30T02:42:28.987Z,26.20
2018-03-30T02:44:56.507Z,26.23
2018-03-30T02:47:24.062Z,26.73
2018-03-30T02:49:51.569Z,26.30
2018-03-30T02:52:19.118Z,25.80
2018-03-30T02:54:46.976Z,24.80
2018-03-30T02:57:14.487Z,23.30
2018-03-30T02:59:42.003Z,25.10
2018-03-30T03:02:09.507Z,24.97
2018-03-30T03:04:37.064Z,25.47
2018-03-30T03:07:04.572Z,23.83
2018-03-30T03:09:32.341Z,23.90
2018-03-30T03:11:59.872Z,25.20
2018-03-30T03:14:27.378Z,24.63
2018-03-30T03:16:54.904Z,25.03
2018-03-30T03:19:22.421Z,23.27
2018-03-30T03:21:49.916Z,23.67
2018-03-30T03:24:17.449Z,25.73
2018-03-30T03:26:44.969Z,24.63
2018-03-30T03:29:12.497Z,25.70
2018-03-30T03:31:40.276Z,23.63
2018-03-30T03:34:07.858Z,24.10
2018-03-30T03:36:35.386Z,24.67
2018-03-30T03:39:02.978Z,24.70
2018-03-30T03:41:30.501Z,25.57
2018-03-30T03:43:58.121Z,24.63
2018-03-30T03:46:25.656Z,25.90
2018-03-30T03:48:53.191Z,27.07
2018-03-30T03:51:20.702Z,26.93
2018-03-30T03:53:48.483Z,27.40
2018-03-30T03:56:15.978Z,26.90
2018-03-30T03:58:43.516Z,28.00
2018-03-30T04:01:11.933Z,28.20
2018-03-30T04:03:39.797Z,26.80
2018-03-30T04:06:07.665Z,26.20
2018-03-30T04:08:35.183Z,25.33
2018-03-30T04:11:02.716Z,24.00
2018-03-30T04:13:30.258Z,25.40
2018-03-30T04:15:57.801Z,25.23
2018-03-30T04:18:25.336Z,24.70
2018-03-30T04:20:53.190Z,26.00
2018-03-30T04:23:20.769Z,23.57
2018-03-30T04:25:48.332Z,23.27
2018-03-30T04:28:16.121Z,23.07
2018-03-30T04:30:43.675Z,21.67
2018-03-30T04:33:11.184Z,20.60
2018-03-30T04:35:38.688Z,20.90
2018-03-30T04:38:06.279Z,21.27
2018-03-30T04:40:33.823Z,20.90
2018-03-30T04:43:01.562Z,21.93
2018-03-30T04:45:29.310Z,23.07
2018-03-30T04:47:56.814Z,20.00
2018-03-30T04:50:24.335Z,22.50
2018-03-30T04:52:51.857Z,22.00
2018-03-30T04:55:19.461Z,20.50
2018-03-30T04:57:46.916Z,21.23
2018-03-30T05:00:14.453Z,20.33
2018-03-30T05:02:41.955Z,21.10
2018-03-30T05:05:09.746Z,20.00
2018-03-30T05:07:37.272Z,20.33
2018-03-30T05:10:04.784Z,19.87
2018-03-30T05:12:32.450Z,19.47
2018-03-30T05:15:00.012Z,19.60
2018-03-30T05:17:27.511Z,19.50
2018-03-30T05:19:55.053Z,19.03
2018-03-30T05:22:22.563Z,20.47
2018-03-30T05:24:50.075Z,20.30
2018-03-30T05:27:18.204Z,19.80
2018-03-30T05:29:45.749Z,19.60
2018-03-30T05:32:13.261Z,19.90
2018-03-30T05:34:40.767Z,20.13
2018-03-30T05:37:08.436Z,20.60
2018-03-30T05:39:36.004Z,21.20
2018-03-30T05:42:03.606Z,21.13
2018-03-30T05:44:31.119Z,21.17
2018-03-30T05:46:58.761Z,21.80
2018-03-30T05:49:26.260Z,20.57
2018-03-30T05:51:53.997Z,19.30
2018-03-30T05:54:22.008Z,19.53
2018-03-30T05:56:49.525Z,18.90
2018-03-30T05:59:17.082Z,18.63
2018-03-30T06:01:44.599Z,16.80
2018-03-30T06:04:12.113Z,17.70
2018-03-30T06:06:39.740Z,17.13
2018-03-30T06:09:07.444Z,16.07
2018-03-30T06:11:35.204Z,15.77
2018-03-30T06:14:02.731Z,14.50
2018-03-30T06:16:30.286Z,17.03
2018-03-30T06:18:57.802Z,16.30
2018-03-30T06:21:25.370Z,16.50
2018-03-30T06:23:53.020Z,16.00
2018-03-30T06:26:20.522Z,16.10
2018-03-30T06:28:48.039Z,15.57
2018-03-30T06:31:16.748Z,14.50
2018-03-30T06:33:44.281Z,15.10
2018-03-30T06:36:11.829Z,15.00
2018-03-30T06:38:39.447Z,13.60
2018-03-30T06:41:06.965Z,13.13
2018-03-30T06:43:35.314Z,14.37
2018-03-30T06:46:02.944Z,15.10
2018-03-30T06:48:30.534Z,15.20
2018-03-30T06:50:58.165Z,14.50
2018-03-30T06:53:25.653Z,15.50
2018-03-30T06:55:53.213Z,14.50
2018-03-30T06:58:20.870Z,14.80
2018-03-30T07:00:48.390Z,16.10
2018-03-30T07:03:16.137Z,16.33
2018-03-30T07:05:43.666Z,16.27
2018-03-30T07:08:11.199Z,16.70
2018-03-30T07:10:38.994Z,15.50
2018-03-30T07:13:06.588Z,15.90
2018-03-30T07:15:34.143Z,15.93
2018-03-30T07:18:01.776Z,15.73
2018-03-30T07:20:29.290Z,16.70
2018-03-30T07:22:56.797Z,16.77
2018-03-30T07:25:24.366Z,16.73
2018-03-30T07:27:51.961Z,16.50
2018-03-30T07:30:19.667Z,18.10
2018-03-30T07:32:47.299Z,17.00
2018-03-30T07:35:14.816Z,17.13
2018-03-30T07:37:42.346Z,16.93
2018-03-30T07:40:09.845Z,16.40
2018-03-30T07:42:37.380Z,16.33
2018-03-30T07:45:04.919Z,17.17
2018-03-30T07:47:32.480Z,17.33
2018-03-30T07:50:00.083Z,16.97
2018-03-30T07:52:27.547Z,18.10
2018-03-30T07:54:55.067Z,17.90
2018-03-30T07:57:22.725Z,18.47
2018-03-30T07:59:50.251Z,18.63
2018-03-30T08:02:17.823Z,16.90
2018-03-30T08:04:45.367Z,17.73
2018-03-30T08:07:12.973Z,16.60
2018-03-30T08:09:40.769Z,18.17
2018-03-30T08:12:08.317Z,18.57
2018-03-30T08:14:35.929Z,17.10
2018-03-30T08:17:04.019Z,18.50
2018-03-30T08:19:31.659Z,17.70
2018-03-30T08:22:00.001Z,17.57
2018-03-30T08:24:27.585Z,19.10
2018-03-30T08:26:55.389Z,17.73
2018-03-30T08:29:23.201Z,18.30
2018-03-30T08:31:50.842Z,18.47
2018-03-30T08:34:18.415Z,18.50
2018-03-30T08:36:45.964Z,19.07
2018-03-30T08:39:13.519Z,18.87
2018-03-30T08:41:41.069Z,19.70
2018-03-30T08:44:08.611Z,19.00
2018-03-30T08:46:37.525Z,19.93
2018-03-30T08:49:05.542Z,21.57
2018-03-30T08:51:33.172Z,22.50
2018-03-30T08:54:00.722Z,21.70
2018-03-30T08:56:28.364Z,22.17
2018-03-30T08:58:55.912Z,23.37
2018-03-30T09:01:23.432Z,21.93
2018-03-30T09:03:50.953Z,21.93
2018-03-30T09:06:18.510Z,21.57
2018-03-30T09:08:46.020Z,22.03
2018-03-30T09:11:13.536Z,21.87
2018-03-30T09:13:41.074Z,21.73
2018-03-30T09:16:08.675Z,22.30
2018-03-30T09:18:36.191Z,24.37
2018-03-30T09:21:04.245Z,21.40
2018-03-30T09:23:31.784Z,23.47
2018-03-30T09:25:59.567Z,22.77
2018-03-30T09:28:27.160Z,22.33
2018-03-30T09:30:54.672Z,22.47
2018-03-30T09:33:28.259Z,23.47
2018-03-30T09:35:56.066Z,22.90
2018-03-30T09:38:23.632Z,24.10
2018-03-30T09:40:51.160Z,23.90
2018-03-30T09:43:18.676Z,23.27
2018-03-30T09:45:46.243Z,22.43
2018-03-30T09:48:13.784Z,24.27
2018-03-30T09:50:41.298Z,22.77
2018-03-30T09:53:08.816Z,24.37
2018-03-30T09:55:36.578Z,23.03
2018-03-30T09:58:04.132Z,24.10
2018-03-30T10:00:31.650Z,23.17
2018-03-30T10:03:04.964Z,24.63
2018-03-30T10:05:32.457Z,22.40
2018-03-30T10:07:59.983Z,27.40
2018-03-30T10:10:27.643Z,24.10
2018-03-30T10:12:56.021Z,24.27
2018-03-30T10:15:23.544Z,23.37
2018-03-30T10:17:51.059Z,23.50
2018-03-30T10:20:18.915Z,30.67
2018-03-30T10:22:46.428Z,25.50
2018-03-30T10:25:13.994Z,23.50
2018-03-30T10:27:41.714Z,25.00
2018-03-30T10:30:09.243Z,24.70
2018-03-30T10:32:36.802Z,26.60
2018-03-30T10:35:04.300Z,25.47
2018-03-30T10:37:31.822Z,24.90
2018-03-30T10:39:59.379Z,25.17
2018-03-30T10:42:26.909Z,26.30
2018-03-30T10:44:55.069Z,26.73
2018-03-30T10:47:22.590Z,27.57
2018-03-30T10:49:50.144Z,25.90
2018-03-30T10:52:17.828Z,25.80
2018-03-30T10:54:45.326Z,26.97
2018-03-30T10:57:12.923Z,27.00
2018-03-30T10:59:40.472Z,27.07
2018-03-30T11:02:08.072Z,28.37
2018-03-30T11:04:35.920Z,27.30
2018-03-30T11:07:03.461Z,28.07
2018-03-30T11:09:31.251Z,27.03
2018-03-30T11:11:58.766Z,27.73
2018-03-30T11:14:26.575Z,28.00
2018-03-30T11:16:54.442Z,26.23
2018-03-30T11:19:22.349Z,28.60
2018-03-30T11:21:49.932Z,26.80
2018-03-30T11:24:17.478Z,27.63
2018-03-30T11:26:45.003Z,26.27
2018-03-30T11:29:12.578Z,27.10
2018-03-30T11:31:40.113Z,26.50
2018-03-30T11:34:07.647Z,27.17
2018-03-30T11:36:35.439Z,26.60
2018-03-30T11:39:02.969Z,27.10
2018-03-30T11:41:30.554Z,25.33
2018-03-30T11:43:58.705Z,25.73
2018-03-30T11:46:26.504Z,25.87
2018-03-30T11:48:54.095Z,25.83
2018-03-30T11:51:21.933Z,25.60
2018-03-30T11:53:49.491Z,25.97
2018-03-30T11:56:17.119Z,24.17
2018-03-30T11:58:44.635Z,25.00
2018-03-30T12:01:12.200Z,25.03
2018-03-30T12:03:40.419Z,26.00
2018-03-30T12:06:08.131Z,23.60
2018-03-30T12:08:35.656Z,25.00
2018-03-30T12:11:03.168Z,23.40
2018-03-30T12:13:30.921Z,22.87
2018-03-30T12:15:58.516Z,22.77
2018-03-30T12:18:26.086Z,22.90
2018-03-30T12:20:53.661Z,22.43
2018-03-30T12:23:21.195Z,22.27
2018-03-30T12:25:48.719Z,21.60
2018-03-30T12:28:16.591Z,22.00
2018-03-30T12:30:44.126Z,21.30
2018-03-30T12:33:11.669Z,21.27
2018-03-30T12:35:39.557Z,21.67
2018-03-30T12:38:07.097Z,20.77
2018-03-30T12:40:34.628Z,21.87
2018-03-30T12:43:02.569Z,19.43
2018-03-30T12:45:30.223Z,20.67
2018-03-30T12:47:57.757Z,20.43
2018-03-30T12:50:25.339Z,19.40
2018-03-30T12:52:52.866Z,19.30
2018-03-30T12:55:20.438Z,20.80
2018-03-30T12:57:48.032Z,21.00
2018-03-30T13:00:15.787Z,21.10
2018-03-30T13:02:43.481Z,22.23
2018-03-30T13:05:11.012Z,21.43
2018-03-30T13:07:38.544Z,22.50
2018-03-30T13:10:06.360Z,21.97
2018-03-30T13:12:33.897Z,23.60
2018-03-30T13:15:01.425Z,19.83
2018-03-30T13:17:29.223Z,21.10
2018-03-30T13:19:56.750Z,20.80
2018-03-30T13:22:24.291Z,20.93
2018-03-30T13:24:51.900Z,20.33
2018-03-30T13:27:19.437Z,20.20
2018-03-30T13:29:47.239Z,19.87
2018-03-30T13:32:15.014Z,21.60
2018-03-30T13:34:42.573Z,22.20
2018-03-30T13:37:10.120Z,21.23
2018-03-30T13:39:37.780Z,21.20
2018-03-30T13:42:05.418Z,21.00
2018-03-30T13:44:32.944Z,20.17
2018-03-30T13:47:01.930Z,20.83
2018-03-30T13:49:29.506Z,20.03
2018-03-30T13:52:03.998Z,19.33
2018-03-30T13:54:32.156Z,20.23
2018-03-30T13:57:00.460Z,19.70
2018-03-30T13:59:30.914Z,19.13
2018-03-30T14:02:06.934Z,16.90
2018-03-30T14:04:37.939Z,18.27
2018-03-30T14:10:06.278Z,19.03
2018-03-30T14:12:37.328Z,19.40
2018-03-30T14:15:07.489Z,19.87
2018-03-30T14:17:55.614Z,18.73
2018-03-30T14:20:25.684Z,18.60
2018-03-30T14:22:59.025Z,19.33
2018-03-30T14:25:27.988Z,19.67
2018-03-30T14:28:06.710Z,20.07
2018-03-30T14:30:44.004Z,19.70
2018-03-30T14:33:26.407Z,17.97
2018-03-30T14:36:00.784Z,19.80
2018-03-30T14:38:55.939Z,18.87
2018-03-30T14:41:23.529Z,19.00
2018-03-30T14:43:55.619Z,18.00
2018-03-30T14:46:35.887Z,17.40
2018-03-30T14:49:04.555Z,17.80
2018-03-30T14:51:37.906Z,18.90
2018-03-30T14:57:05.266Z,19.20
2018-03-30T14:59:51.675Z,20.40
2018-03-30T15:02:40.868Z,18.90
2018-03-30T15:05:12.057Z,19.57
2018-03-30T15:10:54.003Z,19.47
2018-03-30T15:13:25.240Z,19.50
2018-03-30T15:16:09.244Z,20.10
2018-03-30T15:18:36.798Z,20.60
2018-03-30T15:21:13.013Z,21.00
2018-03-30T15:23:43.205Z,21.40
2018-03-30T15:26:11.026Z,20.23
2018-03-30T15:28:44.012Z,20.50
2018-03-30T15:34:11.668Z,20.90
2018-03-30T15:36:43.922Z,19.03
2018-03-30T15:39:11.472Z,21.50
2018-03-30T15:41:42.258Z,20.40
2018-03-30T15:44:09.828Z,19.17
2018-03-30T15:46:38.305Z,20.10
2018-03-30T15:49:05.875Z,20.00
2018-03-30T15:51:34.562Z,21.10
2018-03-30T15:54:01.571Z,20.17
2018-03-30T15:56:29.744Z,19.77
2018-03-30T15:58:57.304Z,20.53
2018-03-30T16:01:24.848Z,20.03
2018-03-30T16:03:52.370Z,20.20
2018-03-30T16:06:20.137Z,21.60
2018-03-30T16:08:47.782Z,19.57
2018-03-30T16:11:36.945Z,20.27
2018-03-30T16:14:04.736Z,20.43
2018-03-30T16:16:32.322Z,19.77
2018-03-30T16:18:59.318Z,22.73
2018-03-30T16:21:26.307Z,20.20
2018-03-30T16:23:53.400Z,20.00
2018-03-30T16:26:20.370Z,20.20
2018-03-30T16:28:47.376Z,20.13
2018-03-30T16:31:14.362Z,19.37
2018-03-30T16:33:41.366Z,20.03
2018-03-30T16:36:08.427Z,19.20
2018-03-30T16:38:35.465Z,18.80
2018-03-30T16:41:02.859Z,18.73
2018-03-30T16:43:29.823Z,19.27
2018-03-30T16:45:56.842Z,18.00
2018-03-30T16:48:23.806Z,18.63
2018-03-30T16:50:50.896Z,17.77
2018-03-30T16:53:17.860Z,18.57
2018-03-30T16:55:44.895Z,17.93
2018-03-30T16:58:11.918Z,17.80
2018-03-30T17:00:38.902Z,17.90
2018-03-30T17:03:05.912Z,17.37
2018-03-30T17:05:33.264Z,16.80
2018-03-30T17:08:00.871Z,16.07
2018-03-30T17:10:27.873Z,17.13
2018-03-30T17:12:54.842Z,15.60
2018-03-30T17:15:21.969Z,16.77
2018-03-30T17:17:48.975Z,16.20
2018-03-30T17:20:15.959Z,16.50
2018-03-30T17:22:43.309Z,16.27
2018-03-30T17:25:10.335Z,16.73
2018-03-30T17:27:37.373Z,15.77
2018-03-30T17:30:04.403Z,16.57
2018-03-30T17:32:31.433Z,15.33
2018-03-30T17:34:58.463Z,15.20
2018-03-30T17:37:25.451Z,15.90
2018-03-30T17:39:52.747Z,15.90
2018-03-30T17:42:19.708Z,15.40
2018-03-30T17:44:46.673Z,14.83
2018-03-30T17:47:13.654Z,15.97
2018-03-30T17:49:40.636Z,16.10
2018-03-30T17:52:07.992Z,15.77
2018-03-30T17:54:34.964Z,14.93
2018-03-30T17:57:01.943Z,15.07
2018-03-30T17:59:29.017Z,14.80
2018-03-30T18:01:55.995Z,15.00
2018-03-30T18:04:22.983Z,15.60
2018-03-30T18:06:49.972Z,14.80
2018-03-30T18:09:16.958Z,14.03
2018-03-30T18:11:43.931Z,15.60
2018-03-30T18:14:11.031Z,14.43
2018-03-30T18:16:37.998Z,15.37
2018-03-30T18:19:05.255Z,14.57
2018-03-30T18:21:32.223Z,14.23
2018-03-30T18:23:59.284Z,13.83
2018-03-30T18:26:26.282Z,14.13
2018-03-30T18:28:53.262Z,14.07
2018-03-30T18:31:20.378Z,13.97
2018-03-30T18:33:48.552Z,14.03
2018-03-30T18:36:15.602Z,14.00
2018-03-30T18:38:42.666Z,13.73
2018-03-30T18:41:09.665Z,12.93
2018-03-30T18:43:36.956Z,14.50
2018-03-30T18:46:03.944Z,13.80
2018-03-30T18:48:30.963Z,14.30
2018-03-30T18:50:57.958Z,14.17
2018-03-30T18:53:25.007Z,13.67
2018-03-30T18:55:51.984Z,13.67
2018-03-30T18:58:18.959Z,14.07
2018-03-30T19:00:45.970Z,15.80
2018-03-30T19:03:12.960Z,14.40
2018-03-30T19:05:40.066Z,14.00
2018-03-30T19:08:07.843Z,14.57
2018-03-30T19:10:34.812Z,14.07
2018-03-30T19:13:02.147Z,15.17
2018-03-30T19:15:29.102Z,16.27
2018-03-30T19:17:56.095Z,18.47
2018-03-30T19:20:23.122Z,15.90
2018-03-30T19:22:50.327Z,14.93
2018-03-30T19:25:17.342Z,14.83
2018-03-30T19:27:44.320Z,15.97
2018-03-30T19:30:11.307Z,15.30
2018-03-30T19:32:38.432Z,14.77
2018-03-30T19:35:05.404Z,14.67
2018-03-30T19:37:32.378Z,14.90
2018-03-30T19:39:59.397Z,15.77
2018-03-30T19:42:26.373Z,14.73
2018-03-30T19:44:53.660Z,16.40
2018-03-30T19:47:20.646Z,15.67
2018-03-30T19:49:47.657Z,16.07
2018-03-30T19:52:14.721Z,16.23
2018-03-30T19:54:42.027Z,14.97
2018-03-30T19:57:09.000Z,16.37
2018-03-30T19:59:37.083Z,15.80
2018-03-30T20:02:04.064Z,15.10
2018-03-30T20:04:31.032Z,14.97
2018-03-30T20:06:58.143Z,15.50
2018-03-30T20:09:25.128Z,16.27
2018-03-30T20:11:52.422Z,16.60
2018-03-30T20:14:19.470Z,15.47
2018-03-30T20:16:46.546Z,15.10
2018-03-30T20:19:13.538Z,14.40
2018-03-30T20:21:41.192Z,15.33
2018-03-30T20:24:08.608Z,15.83
2018-03-30T20:26:35.853Z,15.40
2018-03-30T20:29:02.807Z,15.30
2018-03-30T20:31:31.290Z,14.93
2018-03-30T20:33:58.530Z,15.30
2018-03-30T20:36:25.859Z,15.60
2018-03-30T20:38:52.835Z,15.60
2018-03-30T20:41:19.801Z,15.80
2018-03-30T20:43:46.807Z,15.03
2018-03-30T20:46:13.843Z,15.97
2018-03-30T20:48:40.842Z,15.33
2018-03-30T20:51:07.837Z,15.27
2018-03-30T20:53:34.829Z,16.03
2018-03-30T20:56:01.838Z,16.00
2018-03-30T20:58:28.832Z,15.70
2018-03-30T21:00:56.287Z,15.47
2018-03-30T21:03:23.324Z,15.27
2018-03-30T21:05:50.315Z,16.27
2018-03-30T21:08:17.637Z,16.17
2018-03-30T21:10:49.784Z,16.40
2018-03-30T21:13:16.797Z,15.07
2018-03-30T21:15:43.787Z,16.33
2018-03-30T21:18:11.032Z,16.00
2018-03-30T21:20:38.245Z,14.53
2018-03-30T21:23:05.220Z,16.40
2018-03-30T21:25:32.240Z,16.60
2018-03-30T21:27:59.213Z,15.67
2018-03-30T21:30:26.184Z,16.17
2018-03-30T21:32:53.180Z,15.97
2018-03-30T21:35:20.255Z,17.60
2018-03-30T21:37:47.246Z,17.40
2018-03-30T21:40:14.216Z,15.77
2018-03-30T21:42:41.189Z,16.87
2018-03-30T21:45:08.187Z,17.10
2018-03-30T21:47:35.144Z,15.20
2018-03-30T21:50:02.416Z,15.90
2018-03-30T21:52:29.387Z,16.77
2018-03-30T21:54:56.355Z,17.50
2018-03-30T21:57:23.386Z,15.97
2018-03-30T21:59:50.323Z,17.30
2018-03-30T22:02:17.346Z,16.83
2018-03-30T22:04:44.326Z,16.40
2018-03-30T22:07:11.312Z,17.17
2018-03-30T22:09:38.550Z,16.50
2018-03-30T22:12:05.533Z,17.10
2018-03-30T22:14:32.513Z,18.30
2018-03-30T22:16:59.519Z,17.60
2018-03-30T22:19:26.779Z,17.97
2018-03-30T22:21:53.768Z,17.30
2018-03-30T22:24:20.768Z,17.13
2018-03-30T22:26:47.766Z,17.37
2018-03-30T22:29:14.727Z,19.57
2018-03-30T22:31:41.734Z,17.43
2018-03-30T22:34:08.705Z,17.90
2018-03-30T22:36:35.688Z,17.47
2018-03-30T22:39:02.774Z,18.50
2018-03-30T22:41:29.728Z,18.30
2018-03-30T22:43:57.024Z,18.20
2018-03-30T22:46:24.382Z,16.87
2018-03-30T22:48:51.346Z,17.00
2018-03-30T22:51:18.302Z,17.50
2018-03-30T22:53:45.299Z,17.33
2018-03-30T22:56:12.322Z,17.40
2018-03-30T22:58:39.275Z,17.67
2018-03-30T23:01:06.319Z,16.80
2018-03-30T23:03:33.286Z,16.20
2018-03-30T23:06:00.240Z,17.77
2018-03-30T23:08:27.713Z,18.00
2018-03-30T23:10:54.701Z,17.50
2018-03-30T23:13:21.691Z,16.80
2018-03-30T23:15:48.675Z,17.33
2018-03-30T23:18:15.809Z,18.03
2018-03-30T23:20:42.802Z,16.60
2018-03-30T23:23:09.777Z,16.70
2018-03-30T23:25:36.761Z,16.90
2018-03-30T23:28:04.009Z,17.00
2018-03-30T23:30:31.015Z,16.27
2018-03-30T23:32:57.962Z,23.10
2018-03-30T23:35:24.965Z,16.90
2018-03-30T23:37:52.317Z,16.20
2018-03-30T23:40:19.288Z,17.27
2018-03-30T23:42:46.605Z,17.73
2018-03-30T23:45:13.612Z,17.00
2018-03-30T23:47:40.599Z,16.50
2018-03-30T23:50:07.571Z,16.90
2018-03-30T23:52:34.547Z,16.60
2018-03-30T23:55:01.513Z,17.13
2018-03-30T23:57:28.471Z,16.50
2018-03-30T23:59:55.475Z,15.80
